Time;durP1;ratioP1;P1;durP2;ratioP2;P2;SDS_P1;SDS_P2;PMS_P1;PMS_P2;Temp;Humidity;BMP_temperature;BMP_pressure;BME280_temperature;BME280_humidity;BME280_pressure;Samples;Min_cycle;Max_cycle;Signal;HPM_P1;HPM_P2
2021/08/13 00:01:03;;;;;;;9.95;8.93;;;;;;;17.12;92.20;101233.06;2615443;36;20034;-48
2021/08/13 00:03:31;;;;;;;10.68;8.80;;;;;;;17.14;91.50;101234.78;2615606;36;20558;-54
2021/08/13 00:05:59;;;;;;;9.45;8.55;;;;;;;17.11;93.17;101229.59;2616077;31;20536;-48
2021/08/13 00:08:28;;;;;;;9.88;8.70;;;;;;;17.01;93.09;101231.25;2615845;31;20162;-50
2021/08/13 00:10:56;;;;;;;9.73;8.55;;;;;;;16.96;93.59;101224.28;2615540;36;20026;-53
2021/08/13 00:13:23;;;;;;;9.77;8.77;;;;;;;16.95;94.97;101222.56;2615660;31;20026;-55
2021/08/13 00:15:50;;;;;;;12.88;9.55;;;;;;;16.95;95.50;101220.84;2615512;36;20034;-51
2021/08/13 00:18:18;;;;;;;10.18;9.13;;;;;;;17.00;95.64;101219.13;2615386;36;20030;-48
2021/08/13 00:20:45;;;;;;;12.50;9.73;;;;;;;17.05;96.78;101226.94;2615548;31;20061;-57
2021/08/13 00:23:12;;;;;;;10.13;9.13;;;;;;;17.10;96.63;101230.47;2616215;31;20042;-52
2021/08/13 00:25:39;;;;;;;11.10;9.90;;;;;;;17.04;96.80;101230.41;2616311;31;20598;-49
2021/08/13 00:28:06;;;;;;;11.63;9.23;;;;;;;17.24;96.71;101226.25;2615653;36;20496;-51
2021/08/13 00:30:33;;;;;;;10.60;9.55;;;;;;;17.20;97.15;101229.66;2616171;31;20034;-51
2021/08/13 00:33:01;;;;;;;10.68;9.23;;;;;;;17.35;96.53;101222.84;2616521;31;20038;-56
2021/08/13 00:35:28;;;;;;;10.32;9.32;;;;;;;17.24;95.73;101235.72;2616398;31;20061;-54
2021/08/13 00:37:55;;;;;;;11.75;9.05;;;;;;;17.09;95.15;101231.28;2615518;36;20053;-53
2021/08/13 00:40:22;;;;;;;10.35;9.35;;;;;;;17.14;95.10;101233.91;2615718;36;20439;-51
2021/08/13 00:42:49;;;;;;;10.27;9.15;;;;;;;17.07;94.71;101240.78;2615421;36;20030;-53
2021/08/13 00:45:17;;;;;;;9.75;8.75;;;;;;;17.12;93.27;101230.47;2615862;31;20035;-56
2021/08/13 00:47:44;;;;;;;9.85;8.85;;;;;;;17.20;91.78;101231.41;2615344;36;20558;-56
2021/08/13 00:50:11;;;;;;;9.88;8.85;;;;;;;17.20;91.59;101229.66;2615167;36;20026;-55
2021/08/13 00:52:38;;;;;;;9.88;8.88;;;;;;;17.16;90.50;101227.03;2615287;36;20053;-50
2021/08/13 00:55:07;;;;;;;10.20;9.00;;;;;;;17.14;92.16;101228.75;2615191;36;20125;-51
2021/08/13 00:57:35;;;;;;;9.35;8.35;;;;;;;17.20;91.68;101224.50;2615068;36;20030;-51
2021/08/13 01:00:03;;;;;;;10.52;8.75;;;;;;;17.28;90.30;101224.53;2616028;31;20076;-50
2021/08/13 01:02:30;;;;;;;9.65;8.73;;;;;;;17.16;90.82;101225.31;2615973;36;20635;-50
2021/08/13 01:04:57;;;;;;;9.57;8.55;;;;;;;17.11;91.89;101227.00;2615905;31;20047;-49
2021/08/13 01:07:24;;;;;;;10.23;8.95;;;;;;;17.13;91.82;101225.28;2616101;31;20042;-48
2021/08/13 01:09:51;;;;;;;10.23;9.23;;;;;;;17.08;92.53;101226.13;2615301;36;20809;-53
2021/08/13 01:12:43;;;;;;;9.98;8.98;;;;;;;17.05;93.62;101225.25;2615104;36;20030;-51
2021/08/13 01:15:13;;;;;;;9.90;8.93;;;;;;;17.02;93.80;101222.63;2579798;31;2004562;-50
2021/08/13 01:17:54;;;;;;;9.93;8.95;;;;;;;17.12;93.80;101222.69;2615350;36;20597;-54
2021/08/13 01:21:00;;;;;;;10.93;9.80;;;;;;;17.05;94.79;101217.50;2620444;31;20038;-56
2021/08/13 01:23:34;;;;;;;12.73;9.15;;;;;;;17.00;95.81;101216.56;2546171;31;2004885;-49
2021/08/13 01:26:04;;;;;;;11.02;9.70;;;;;;;17.01;97.06;101214.88;2615049;36;20065;-51
2021/08/13 01:28:47;;;;;;;12.90;10.00;;;;;;;17.04;98.10;101210.56;2615633;36;20486;-53
2021/08/13 01:31:22;;;;;;;14.52;10.57;;;;;;;17.01;98.60;101217.44;2615091;36;20065;-55
2021/08/13 01:34:11;;;;;;;12.00;9.48;;;;;;;17.09;97.81;101212.31;2615450;36;20038;-54
2021/08/13 01:36:44;;;;;;;14.60;10.75;;;;;;;17.02;99.85;101212.28;2579411;31;2004393;-53
2021/08/13 01:39:12;;;;;;;10.82;9.70;;;;;;;16.89;99.60;101210.44;2615050;36;20037;-51
2021/08/13 01:41:42;;;;;;;13.65;9.65;;;;;;;16.83;100.00;101207.81;2615805;31;20121;-55
2021/08/13 01:44:11;;;;;;;13.40;10.90;;;;;;;16.86;100.00;101215.59;2616021;31;20058;-52
2021/08/13 01:46:41;;;;;;;10.07;9.15;;;;;;;17.04;99.51;101210.56;2615508;31;20025;-51
2021/08/13 01:49:11;;;;;;;13.50;10.05;;;;;;;16.95;99.17;101210.47;2615264;31;20582;-49
2021/08/13 01:51:38;;;;;;;11.95;9.98;;;;;;;16.87;98.53;101208.69;2615694;31;20086;-55
2021/08/13 01:54:06;;;;;;;12.32;9.80;;;;;;;16.85;99.40;101205.22;2615097;31;20058;-48
2021/08/13 01:56:35;;;;;;;11.32;10.23;;;;;;;16.79;99.69;101201.75;2616320;31;20483;-51
2021/08/13 01:59:02;;;;;;;11.32;10.23;;;;;;;16.90;98.59;101201.81;2614916;36;20030;-53
2021/08/13 02:01:31;;;;;;;12.48;10.10;;;;;;;16.89;98.51;101199.22;2615160;36;20034;-52
2021/08/13 02:04:00;;;;;;;11.20;10.07;;;;;;;16.88;98.99;101194.91;2615569;31;20053;-53
2021/08/13 02:06:32;;;;;;;13.25;10.55;;;;;;;16.92;99.10;101194.09;2615413;31;20035;-56
2021/08/13 02:09:01;;;;;;;11.45;10.35;;;;;;;16.84;100.00;101198.34;2578876;36;2004129;-52
2021/08/13 02:11:28;;;;;;;12.20;11.02;;;;;;;16.77;100.00;101190.50;2615120;31;20043;-53
2021/08/13 02:13:56;;;;;;;12.07;10.52;;;;;;;16.80;100.00;101184.50;2615615;36;20438;-51
2021/08/13 02:16:27;;;;;;;11.32;10.15;;;;;;;16.72;100.00;101181.84;2615119;31;20057;-52
2021/08/13 02:19:17;;;;;;;12.10;10.85;;;;;;;16.77;100.00;101185.31;2614894;36;20030;-52
2021/08/13 02:21:46;;;;;;;11.65;10.35;;;;;;;16.73;100.00;101190.47;2578832;36;2004389;-52
2021/08/13 02:24:17;;;;;;;10.82;9.52;;;;;;;17.24;100.00;101194.28;2615774;31;20571;-50
2021/08/13 02:26:48;;;;;;;12.02;10.88;;;;;;;17.41;100.00;101195.28;2615038;36;20030;-55
2021/08/13 02:29:15;;;;;;;11.80;10.60;;;;;;;17.14;100.00;101189.91;2614594;36;20030;-53
2021/08/13 02:31:42;;;;;;;11.98;10.77;;;;;;;16.89;100.00;101191.47;2615052;36;20042;-50
2021/08/13 02:34:10;;;;;;;11.63;10.50;;;;;;;17.14;100.00;101189.91;2615599;36;20063;-50
2021/08/13 02:36:44;;;;;;;12.05;11.05;;;;;;;16.85;100.00;101197.47;2615187;36;20034;-52
2021/08/13 02:39:19;;;;;;;12.27;10.60;;;;;;;16.81;100.00;101199.16;2615106;36;20578;-53
2021/08/13 02:41:48;;;;;;;11.02;9.65;;;;;;;16.85;100.00;101197.47;2615440;31;20034;-52
2021/08/13 02:44:19;;;;;;;11.10;10.00;;;;;;;17.60;97.88;101221.25;2615847;36;20037;-56
2021/08/13 02:46:55;;;;;;;11.48;10.48;;;;;;;17.33;100.00;101211.59;2616395;31;20030;-50
2021/08/13 02:49:25;;;;;;;10.88;9.77;;;;;;;17.22;100.00;101207.22;2616928;31;20272;-51
2021/08/13 02:51:56;;;;;;;10.57;9.52;;;;;;;17.45;96.48;101207.38;2616693;31;20057;-52
2021/08/13 02:54:27;;;;;;;12.02;10.85;;;;;;;17.28;98.57;101207.25;2615913;31;20037;-51
2021/08/13 02:56:58;;;;;;;11.07;9.98;;;;;;;17.15;98.32;101218.41;2615972;36;20570;-53
2021/08/13 02:59:30;;;;;;;11.80;10.57;;;;;;;17.13;97.40;101211.47;2615559;36;20042;-50
2021/08/13 03:02:00;;;;;;;11.63;10.07;;;;;;;16.89;98.83;101209.59;2616770;31;20058;-52
2021/08/13 03:04:30;;;;;;;11.30;9.70;;;;;;;16.91;98.45;101207.84;2615379;36;20047;-48
2021/08/13 03:06:59;;;;;;;12.63;10.80;;;;;;;16.77;100.00;101206.03;2615995;36;20436;-54
2021/08/13 03:09:27;;;;;;;11.05;9.90;;;;;;;16.82;100.00;101206.06;2616386;36;20472;-53
2021/08/13 03:11:55;;;;;;;13.25;10.60;;;;;;;16.67;100.00;101208.50;2616403;36;20443;-54
2021/08/13 03:14:22;;;;;;;11.85;10.73;;;;;;;16.63;100.00;101199.84;2615866;36;20128;-52
2021/08/13 03:16:51;;;;;;;11.10;10.00;;;;;;;16.74;100.00;101202.56;2615879;31;20038;-52
2021/08/13 03:19:20;;;;;;;11.98;10.82;;;;;;;16.58;100.00;101201.50;2615432;36;20026;-55
2021/08/13 03:21:50;;;;;;;12.18;10.60;;;;;;;16.57;100.00;101204.09;2615509;31;20038;-51
2021/08/13 03:24:18;;;;;;;13.13;11.82;;;;;;;16.64;100.00;101201.59;2615469;36;20583;-53
2021/08/13 03:26:47;;;;;;;14.23;11.82;;;;;;;16.48;100.00;101200.56;2615792;36;20030;-49
2021/08/13 03:29:15;;;;;;;17.38;12.10;;;;;;;16.36;100.00;101203.03;2615998;31;20075;-55
2021/08/13 03:31:44;;;;;;;18.52;12.30;;;;;;;16.42;100.00;101205.69;2615810;36;20665;-51
2021/08/13 03:34:16;;;;;;;15.93;11.32;;;;;;;16.35;100.00;101203.88;2616139;31;20049;-49
2021/08/13 03:36:43;;;;;;;14.00;11.85;;;;;;;16.30;100.00;101200.38;2616533;31;20038;-50
2021/08/13 03:39:12;;;;;;;12.27;10.93;;;;;;;16.37;100.00;101197.03;2615616;36;20031;-52
2021/08/13 03:41:40;;;;;;;15.52;12.07;;;;;;;16.29;100.00;101202.09;2615332;36;20030;-51
2021/08/13 03:44:07;;;;;;;15.00;11.48;;;;;;;16.29;100.00;101196.06;2614503;31;20033;-51
2021/08/13 03:46:34;;;;;;;12.52;11.27;;;;;;;16.32;100.00;101201.28;2614741;31;20038;-52
2021/08/13 03:49:02;;;;;;;17.40;11.23;;;;;;;16.45;100.00;101197.94;2615243;36;20034;-52
2021/08/13 03:51:29;;;;;;;12.32;11.02;;;;;;;16.39;100.00;101195.31;2616667;31;20108;-50
2021/08/13 03:53:56;;;;;;;12.23;10.95;;;;;;;16.73;100.00;101193.94;2615695;36;20049;-51
2021/08/13 03:56:23;;;;;;;14.48;12.98;;;;;;;17.15;100.00;101210.66;2616863;31;20030;-51
2021/08/13 03:58:50;;;;;;;12.98;11.80;;;;;;;16.51;100.00;101197.16;2616164;31;20031;-53
2021/08/13 04:01:17;;;;;;;12.40;11.10;;;;;;;16.83;100.00;101194.03;2615468;36;20064;-50
2021/08/13 04:03:44;;;;;;;14.35;11.23;;;;;;;16.50;100.00;101198.88;2615406;36;20562;-52
2021/08/13 04:06:11;;;;;;;12.50;11.20;;;;;;;17.02;100.00;101196.75;2615502;36;20030;-52
2021/08/13 04:08:39;;;;;;;15.60;13.95;;;;;;;17.30;99.87;101200.38;2615231;36;20657;-49
2021/08/13 04:11:06;;;;;;;13.75;12.23;;;;;;;17.10;100.00;101206.28;2615863;31;20061;-53
2021/08/13 04:13:33;;;;;;;12.52;10.50;;;;;;;17.14;99.61;101200.25;2616151;31;20482;-54
2021/08/13 04:16:00;;;;;;;12.07;10.70;;;;;;;16.95;100.00;101199.28;2615117;31;20031;-53
2021/08/13 04:18:27;;;;;;;12.15;11.00;;;;;;;17.11;100.00;101213.22;2615419;31;20022;-53
2021/08/13 04:20:54;;;;;;;12.48;11.27;;;;;;;16.99;100.00;101203.63;2615445;36;20061;-53
2021/08/13 04:23:21;;;;;;;12.10;10.95;;;;;;;17.03;100.00;101190.72;2615468;31;20057;-52
2021/08/13 04:25:48;;;;;;;12.82;11.52;;;;;;;17.13;100.00;101207.16;2615381;36;20057;-51
2021/08/13 04:28:16;;;;;;;11.45;10.38;;;;;;;17.33;99.10;101201.25;2616020;31;20041;-50
2021/08/13 04:30:43;;;;;;;12.32;11.05;;;;;;;17.73;93.95;101211.00;2616079;31;20034;-53
2021/08/13 04:33:12;;;;;;;12.40;11.13;;;;;;;17.53;95.11;101213.47;2615349;36;20122;-53
2021/08/13 04:35:39;;;;;;;11.75;10.63;;;;;;;17.77;92.17;101215.34;2615248;36;20042;-50
2021/08/13 04:38:06;;;;;;;11.10;9.98;;;;;;;17.45;95.12;101206.50;2616147;31;20049;-49
2021/08/13 04:40:34;;;;;;;11.98;10.27;;;;;;;17.51;95.27;101211.72;2615223;36;20026;-53
2021/08/13 04:43:01;;;;;;;11.40;10.30;;;;;;;17.87;91.44;101200.69;2615320;36;20100;-55
2021/08/13 04:45:28;;;;;;;11.20;9.75;;;;;;;17.86;93.76;101209.34;2615085;36;20046;-51
2021/08/13 04:47:55;;;;;;;11.80;10.27;;;;;;;17.99;90.43;101208.53;2615637;31;20430;-45
2021/08/13 04:50:23;;;;;;;12.48;11.25;;;;;;;17.88;91.83;101204.16;2614400;31;20026;-46
2021/08/13 04:52:51;;;;;;;11.35;10.20;;;;;;;18.11;91.00;101199.06;2613005;36;20057;-43
2021/08/13 04:55:20;;;;;;;11.02;10.00;;;;;;;18.09;89.78;101208.56;2613796;31;20030;-45
2021/08/13 04:57:49;;;;;;;11.45;10.20;;;;;;;18.00;90.97;101209.41;2614506;31;20030;-43
2021/08/13 05:00:19;;;;;;;11.15;9.93;;;;;;;17.92;93.36;101206.75;2614094;36;20054;-43
2021/08/13 05:02:47;;;;;;;13.35;11.30;;;;;;;18.17;90.41;101209.47;2614647;36;20038;-42
2021/08/13 05:05:18;;;;;;;12.50;10.25;;;;;;;18.23;89.42;101209.47;2615662;31;20031;-43
2021/08/13 05:07:47;;;;;;;12.40;10.82;;;;;;;18.00;91.50;101215.44;2614664;31;20030;-45
2021/08/13 05:10:18;;;;;;;16.25;10.85;;;;;;;17.75;94.42;101204.13;2614349;36;20034;-44
2021/08/13 05:12:45;;;;;;;12.95;11.40;;;;;;;17.37;95.88;101193.50;2613675;31;20019;-46
2021/08/13 05:15:16;;;;;;;13.18;11.20;;;;;;;17.61;93.75;101205.75;2613320;36;20042;-45
2021/08/13 05:17:46;;;;;;;12.23;11.02;;;;;;;17.46;96.00;101206.50;2614336;31;20046;-45
2021/08/13 05:20:17;;;;;;;11.70;10.50;;;;;;;17.37;96.25;101205.59;2614131;31;20038;-44
2021/08/13 05:22:46;;;;;;;16.58;11.15;;;;;;;17.59;96.92;101209.19;2614298;36;20597;-44
2021/08/13 05:25:14;;;;;;;16.65;11.27;;;;;;;18.17;92.38;101212.91;2614115;36;20037;-44
2021/08/13 05:27:42;;;;;;;15.73;11.52;;;;;;;17.71;94.21;101204.94;2614805;31;20062;-43
2021/08/13 05:30:16;;;;;;;13.32;10.50;;;;;;;17.53;93.28;101204.84;2614537;31;20041;-43
2021/08/13 05:32:45;;;;;;;13.00;10.82;;;;;;;18.10;92.66;101210.28;2614306;36;20038;-45
2021/08/13 05:35:13;;;;;;;11.88;10.65;;;;;;;18.18;91.49;101219.81;2614352;36;20035;-46
2021/08/13 05:37:40;;;;;;;16.58;11.73;;;;;;;17.92;94.70;101221.44;2613646;36;20115;-44
2021/08/13 05:40:08;;;;;;;13.45;11.70;;;;;;;17.88;95.93;101212.78;2615723;31;20529;-46
2021/08/13 05:42:36;;;;;;;16.38;11.55;;;;;;;17.76;95.76;101216.22;2614271;36;20041;-45
2021/08/13 05:45:05;;;;;;;14.00;11.45;;;;;;;18.21;93.23;101214.66;2613982;36;20072;-46
2021/08/13 05:47:33;;;;;;;12.40;9.88;;;;;;;18.53;90.22;101217.31;2611694;36;20065;-44
2021/08/13 05:50:01;;;;;;;12.05;10.77;;;;;;;18.01;95.14;101218.91;2612540;36;20069;-45
2021/08/13 05:52:28;;;;;;;14.13;11.75;;;;;;;17.93;96.52;101223.16;2614218;36;20041;-45
2021/08/13 05:54:55;;;;;;;15.20;11.35;;;;;;;17.96;94.45;101215.44;2615340;36;20518;-51
2021/08/13 05:57:22;;;;;;;14.55;11.75;;;;;;;17.74;97.18;101217.91;2615108;31;20035;-52
2021/08/13 05:59:49;;;;;;;14.40;11.77;;;;;;;17.61;97.90;101215.22;2615810;36;20717;-51
2021/08/13 06:02:20;;;;;;;14.02;11.20;;;;;;;17.89;96.00;101213.69;2616253;31;20069;-49
2021/08/13 06:04:47;;;;;;;13.55;11.60;;;;;;;18.34;92.43;101218.13;2616578;36;20428;-51
2021/08/13 06:07:14;;;;;;;11.68;10.50;;;;;;;18.02;95.72;101213.69;2614727;36;20030;-47
2021/08/13 06:09:41;;;;;;;13.32;11.55;;;;;;;18.43;92.38;101228.50;2614674;31;20059;-45
2021/08/13 06:12:08;;;;;;;12.77;11.18;;;;;;;18.13;94.61;101226.72;2615904;31;20057;-48
2021/08/13 06:14:36;;;;;;;16.00;11.50;;;;;;;18.14;95.65;101223.25;2615432;36;20725;-52
2021/08/13 06:17:03;;;;;;;15.05;11.73;;;;;;;18.63;92.99;101218.19;2616258;36;20030;-47
2021/08/13 06:19:31;;;;;;;13.80;10.95;;;;;;;18.66;92.08;101215.56;2616003;36;20128;-47
2021/08/13 06:21:59;;;;;;;12.02;10.57;;;;;;;18.91;89.89;101208.72;2617416;36;20124;-49
2021/08/13 06:24:27;;;;;;;15.50;11.00;;;;;;;19.12;88.69;101210.41;2616434;36;20034;-48
2021/08/13 06:26:54;;;;;;;12.25;11.00;;;;;;;19.21;88.62;101206.94;2615489;36;20042;-48
2021/08/13 06:29:21;;;;;;;15.18;11.95;;;;;;;19.31;88.27;101209.50;2616069;36;20427;-52
2021/08/13 06:31:49;;;;;;;12.05;10.93;;;;;;;19.53;88.30;101212.94;2616481;31;20026;-50
2021/08/13 06:34:17;;;;;;;13.13;10.93;;;;;;;19.79;85.53;101207.69;2616033;31;20030;-46
2021/08/13 06:36:45;;;;;;;14.23;11.30;;;;;;;19.82;85.05;101201.59;2614512;36;20470;-49
2021/08/13 06:39:13;;;;;;;15.10;10.43;;;;;;;20.00;84.65;101211.91;2613584;36;20038;-45
2021/08/13 06:41:45;;;;;;;11.30;10.20;;;;;;;20.24;83.76;101207.44;2614230;31;20027;-46
2021/08/13 06:44:14;;;;;;;15.13;11.18;;;;;;;20.47;84.63;101212.50;2614448;31;20055;-51
2021/08/13 06:46:41;;;;;;;13.25;11.80;;;;;;;20.60;84.19;101207.25;2614199;36;20038;-47
2021/08/13 06:49:08;;;;;;;14.38;11.35;;;;;;;20.95;83.28;101202.66;2615241;31;20034;-50
2021/08/13 06:51:35;;;;;;;12.88;10.13;;;;;;;21.19;81.02;101209.38;2615373;36;20038;-45
2021/08/13 06:54:07;;;;;;;12.13;10.82;;;;;;;21.47;78.99;101216.03;2615459;36;20030;-47
2021/08/13 06:56:37;;;;;;;12.77;10.63;;;;;;;21.78;78.44;101224.38;2622508;36;20129;-48
2021/08/13 06:59:05;;;;;;;15.60;10.27;;;;;;;21.96;78.46;101240.69;2613631;36;20038;-49
2021/08/13 07:01:33;;;;;;;16.85;11.10;;;;;;;22.14;78.28;101230.06;2614538;36;20031;-47
2021/08/13 07:04:00;;;;;;;17.05;10.80;;;;;;;22.09;79.02;101227.47;2616237;31;20030;-49
2021/08/13 07:06:27;;;;;;;14.95;10.80;;;;;;;22.77;74.87;101229.97;2615703;31;20038;-49
2021/08/13 07:08:55;;;;;;;16.17;10.18;;;;;;;23.13;74.60;101225.91;2615179;36;20041;-46
2021/08/13 07:11:22;;;;;;;16.40;10.35;;;;;;;23.64;73.29;101227.59;2615077;31;20550;-44
2021/08/13 07:13:49;;;;;;;13.82;9.35;;;;;;;24.23;67.13;101227.25;2614827;31;20054;-44
2021/08/13 07:16:16;;;;;;;16.15;10.15;;;;;;;24.87;64.75;101225.75;2615042;31;20053;-46
2021/08/13 07:18:43;;;;;;;10.45;9.18;;;;;;;25.18;65.25;101223.22;2615611;36;20026;-49
2021/08/13 07:21:10;;;;;;;14.93;10.05;;;;;;;26.03;61.02;101237.50;2617704;31;20027;-49
2021/08/13 07:23:38;;;;;;;14.43;9.50;;;;;;;26.01;60.29;101248.03;2617848;31;20030;-45
2021/08/13 07:26:05;;;;;;;13.02;9.43;;;;;;;25.85;61.16;101245.00;2617561;31;20038;-51
2021/08/13 07:28:32;;;;;;;15.02;9.23;;;;;;;24.58;66.61;101236.94;2616956;31;20030;-51
2021/08/13 07:30:59;;;;;;;15.27;9.77;;;;;;;24.19;69.79;101241.28;2616220;36;20031;-49
2021/08/13 07:33:26;;;;;;;14.30;9.82;;;;;;;24.32;68.55;101240.13;2614072;36;20042;-45
2021/08/13 07:35:53;;;;;;;14.93;9.25;;;;;;;23.83;70.15;101239.41;2614381;31;20075;-50
2021/08/13 07:38:21;;;;;;;16.52;8.77;;;;;;;23.65;73.14;101234.56;2615752;31;20039;-49
2021/08/13 07:40:48;;;;;;;10.63;9.32;;;;;;;23.59;69.79;101232.88;2615267;36;20065;-49
2021/08/13 07:43:15;;;;;;;13.18;8.63;;;;;;;23.99;68.39;101241.69;2616573;36;20042;-45
2021/08/13 07:45:42;;;;;;;14.95;9.63;;;;;;;23.67;69.58;101242.38;2617193;31;20038;-43
2021/08/13 07:48:09;;;;;;;12.95;9.55;;;;;;;23.59;69.50;101242.50;2616570;31;20038;-45
2021/08/13 07:50:36;;;;;;;14.82;8.82;;;;;;;24.21;69.96;101239.50;2615575;36;20911;-46
2021/08/13 07:53:04;;;;;;;12.43;9.40;;;;;;;24.13;67.65;101239.69;2615494;31;20038;-47
2021/08/13 07:55:31;;;;;;;13.70;9.50;;;;;;;24.12;67.52;101235.31;2615198;36;20038;-44
2021/08/13 07:57:58;;;;;;;13.23;9.20;;;;;;;24.38;68.30;101234.78;2615859;31;20030;-45
2021/08/13 08:00:25;;;;;;;13.43;9.05;;;;;;;24.30;69.15;101236.66;2614094;36;20026;-45
2021/08/13 08:02:52;;;;;;;10.50;8.45;;;;;;;24.42;66.90;101240.81;2614108;36;20062;-45
2021/08/13 08:05:19;;;;;;;10.95;9.13;;;;;;;24.39;67.48;101229.50;2614401;36;20061;-44
2021/08/13 08:07:47;;;;;;;9.82;8.60;;;;;;;24.64;66.99;101223.72;2614642;31;20049;-46
2021/08/13 08:10:15;;;;;;;11.40;9.48;;;;;;;24.72;66.80;101228.75;2615514;36;20093;-44
2021/08/13 08:12:43;;;;;;;16.92;9.60;;;;;;;24.63;66.52;101229.81;2615523;36;20057;-44
2021/08/13 08:15:10;;;;;;;13.98;9.73;;;;;;;24.63;66.50;101221.97;2614687;36;20566;-48
2021/08/13 08:17:38;;;;;;;14.40;9.15;;;;;;;24.84;67.85;101228.44;2614165;36;20041;-44
2021/08/13 08:20:07;;;;;;;15.73;9.45;;;;;;;24.83;67.37;101227.59;2614478;36;20038;-44
2021/08/13 08:22:35;;;;;;;17.35;9.57;;;;;;;24.76;68.45;101219.91;2614335;36;20166;-43
2021/08/13 08:25:04;;;;;;;11.55;9.50;;;;;;;24.96;71.18;101214.16;2615244;31;20029;-45
2021/08/13 08:27:31;;;;;;;14.05;8.82;;;;;;;25.41;67.60;101219.97;2614816;31;20031;-46
2021/08/13 08:29:59;;;;;;;11.27;8.63;;;;;;;25.55;64.82;101230.09;2615238;31;20061;-45
2021/08/13 08:32:26;;;;;;;10.75;8.13;;;;;;;26.01;63.66;101234.91;2614712;36;20042;-46
2021/08/13 08:34:53;;;;;;;13.85;8.85;;;;;;;25.98;62.16;101236.78;2614900;36;20030;-45
2021/08/13 08:37:20;;;;;;;13.00;9.10;;;;;;;25.98;61.99;101245.50;2614760;31;20156;-45
2021/08/13 08:39:48;;;;;;;14.02;8.15;;;;;;;25.91;62.02;101241.34;2616331;31;20038;-44
2021/08/13 08:42:19;;;;;;;13.38;8.88;;;;;;;26.55;61.14;101238.53;2615512;31;20042;-45
2021/08/13 08:44:48;;;;;;;10.25;8.00;;;;;;;27.15;58.11;101238.31;2614240;36;20042;-44
2021/08/13 08:47:16;;;;;;;13.52;8.63;;;;;;;27.19;59.33;101251.34;2614153;31;20090;-44
2021/08/13 08:49:45;;;;;;;9.57;7.85;;;;;;;27.23;55.83;101240.69;2615787;31;20038;-47
2021/08/13 08:52:12;;;;;;;12.85;7.75;;;;;;;27.28;56.89;101248.41;2615202;36;20038;-47
2021/08/13 08:54:41;;;;;;;10.52;8.07;;;;;;;27.37;56.39;101248.09;2614640;36;20110;-43
2021/08/13 08:57:11;;;;;;;14.63;8.95;;;;;;;27.10;57.37;101252.53;2614024;36;20027;-47
2021/08/13 08:59:43;;;;;;;12.98;8.63;;;;;;;27.37;56.79;101253.34;2614227;31;20026;-44
2021/08/13 09:02:12;;;;;;;13.48;8.45;;;;;;;27.35;56.63;101255.16;2613754;31;20453;-43
2021/08/13 09:04:40;;;;;;;10.05;8.52;;;;;;;27.47;56.22;101257.38;2613949;31;20030;-48
2021/08/13 09:07:11;;;;;;;12.73;8.75;;;;;;;27.40;54.57;101248.81;2613116;36;20050;-44
2021/08/13 09:09:38;;;;;;;11.18;8.60;;;;;;;27.16;57.18;101249.69;2612843;31;20042;-48
2021/08/13 09:12:07;;;;;;;9.95;8.00;;;;;;;27.48;55.85;101243.28;2614033;31;20023;-47
2021/08/13 09:14:41;;;;;;;12.40;8.35;;;;;;;27.70;56.99;101250.41;2614603;31;20034;-45
2021/08/13 09:17:08;;;;;;;12.75;8.82;;;;;;;27.49;55.33;101242.38;2613410;31;20034;-49
2021/08/13 09:19:46;;;;;;;10.02;8.13;;;;;;;27.79;57.38;101236.94;2612822;36;20065;-45
2021/08/13 09:22:18;;;;;;;11.35;8.48;;;;;;;27.56;56.39;101238.63;2614171;31;20049;-44
2021/08/13 09:24:48;;;;;;;11.70;8.07;;;;;;;28.27;55.32;101235.97;2611038;31;20034;-44
2021/08/13 09:27:28;;;;;;;11.80;8.05;;;;;;;28.33;54.99;101241.88;2611613;36;20034;-47
2021/08/13 09:30:15;;;;;;;11.07;7.63;;;;;;;28.24;54.29;101249.25;2612611;31;20034;-47
2021/08/13 09:32:54;;;;;;;10.77;8.30;;;;;;;28.64;53.52;101262.59;2577652;36;2004586;-44
2021/08/13 09:35:34;;;;;;;12.25;8.63;;;;;;;28.89;51.55;101264.25;2613070;36;20049;-46
2021/08/13 09:38:08;;;;;;;12.93;8.95;;;;;;;28.61;53.06;101254.84;2612287;36;20042;-47
2021/08/13 09:40:38;;;;;;;11.07;8.40;;;;;;;28.82;51.37;101261.00;2576501;36;2004587;-47
2021/08/13 09:43:05;;;;;;;8.20;7.35;;;;;;;28.69;48.92;101257.13;2614337;36;20034;-44
2021/08/13 09:45:33;;;;;;;9.80;7.32;;;;;;;28.48;52.85;101255.38;2614578;36;20057;-48
2021/08/13 09:48:04;;;;;;;7.95;7.15;;;;;;;29.11;49.44;101249.25;2577954;31;2004417;-45
2021/08/13 09:50:41;;;;;;;8.70;7.22;;;;;;;29.77;48.13;101241.09;2614365;36;20034;-46
2021/08/13 09:53:14;;;;;;;11.02;7.72;;;;;;;29.56;47.60;101240.28;2580710;36;2004370;-44
2021/08/13 09:55:43;;;;;;;9.38;7.40;;;;;;;29.29;50.94;101228.28;2615284;31;20039;-44
2021/08/13 09:58:11;;;;;;;10.98;7.82;;;;;;;29.75;46.97;101223.59;2613143;36;20034;-45
2021/08/13 10:00:45;;;;;;;8.70;7.72;;;;;;;31.19;44.59;101222.75;2612434;36;20577;-45
2021/08/13 10:03:14;;;;;;;9.40;7.38;;;;;;;33.07;39.63;101228.19;2612471;31;20171;-45
2021/08/13 10:05:42;;;;;;;8.30;7.18;;;;;;;34.44;38.13;101236.44;2613516;31;20458;-44
2021/08/13 10:08:09;;;;;;;8.90;6.90;;;;;;;34.86;34.87;101227.44;2613525;36;20171;-45
2021/08/13 10:10:39;;;;;;;8.35;6.90;;;;;;;34.64;35.01;101224.50;2613547;36;20602;-46
2021/08/13 10:13:10;;;;;;;7.57;6.68;;;;;;;35.11;34.63;101217.78;2613351;31;20038;-46
2021/08/13 10:15:45;;;;;;;7.78;7.00;;;;;;;36.09;31.22;101218.84;2613905;31;20041;-44
2021/08/13 10:18:14;;;;;;;7.32;6.60;;;;;;;40.06;25.73;101236.34;2613793;36;20042;-47
2021/08/13 10:20:44;;;;;;;8.82;6.80;;;;;;;39.92;26.59;101242.94;2615577;31;20038;-45
2021/08/13 10:23:13;;;;;;;7.40;6.70;;;;;;;38.71;27.41;101250.75;2614657;31;20042;-46
2021/08/13 10:25:41;;;;;;;7.57;6.80;;;;;;;39.05;27.46;101242.53;2612630;36;20034;-48
2021/08/13 10:28:09;;;;;;;6.57;5.97;;;;;;;39.15;27.12;101250.63;2613390;31;20038;-46
2021/08/13 10:30:36;;;;;;;6.50;5.97;;;;;;;38.74;24.89;101252.34;2612486;36;20057;-44
2021/08/13 10:33:07;;;;;;;6.47;5.82;;;;;;;36.21;28.95;101237.47;2614764;31;20053;-45
2021/08/13 10:35:49;;;;;;;6.93;6.43;;;;;;;38.52;26.51;101255.97;2578427;31;2004051;-44
2021/08/13 10:38:19;;;;;;;8.82;6.47;;;;;;;36.91;27.63;101250.03;2613485;31;20030;-46
2021/08/13 10:40:46;;;;;;;6.70;6.20;;;;;;;34.80;30.09;101237.63;2610879;36;20034;-47
2021/08/13 10:43:15;;;;;;;6.80;5.80;;;;;;;35.26;29.72;101243.34;2612979;31;20031;-45
2021/08/13 10:45:47;;;;;;;7.40;6.18;;;;;;;37.35;27.59;101252.91;2612643;31;20061;-48
2021/08/13 10:48:20;;;;;;;6.40;5.88;;;;;;;37.15;27.15;101249.13;2611787;31;20959;-45
2021/08/13 10:50:48;;;;;;;7.33;5.53;;;;;;;39.68;24.02;101251.38;2612186;31;20057;-45
2021/08/13 10:53:25;;;;;;;6.68;5.95;;;;;;;37.38;26.41;101236.66;2613481;36;20037;-48
2021/08/13 10:55:56;;;;;;;6.20;5.60;;;;;;;38.07;27.46;101234.66;2613962;31;20023;-45
2021/08/13 10:58:41;;;;;;;5.38;4.93;;;;;;;39.64;25.02;101235.66;2613560;36;20034;-46
2021/08/13 11:01:10;;;;;;;7.82;5.95;;;;;;;39.88;24.55;101235.31;2577439;31;2004677;-48
2021/08/13 11:03:53;;;;;;;5.40;5.00;;;;;;;40.47;22.98;101229.03;2613414;31;20045;-45
2021/08/13 11:06:39;;;;;;;7.85;5.35;;;;;;;40.69;24.39;101236.00;2613519;36;20038;-47
2021/08/13 11:09:07;;;;;;;5.90;5.40;;;;;;;41.51;22.02;101237.19;2577242;36;2004408;-47
2021/08/13 11:11:59;;;;;;;6.07;5.47;;;;;;;40.56;22.17;101238.97;2612038;31;20684;-46
2021/08/13 11:14:32;;;;;;;6.35;5.38;;;;;;;42.90;19.23;101251.09;2612321;36;20038;-46
2021/08/13 11:17:01;;;;;;;6.28;5.60;;;;;;;41.60;20.86;101237.19;2612567;31;20583;-49
2021/08/13 11:19:56;;;;;;;6.53;6.00;;;;;;;41.03;21.60;101236.38;2612544;36;20030;-49
2021/08/13 11:22:32;;;;;;;7.18;6.20;;;;;;;41.58;20.74;101241.00;2578386;31;2004561;-48